createdAt,value
2018-11-13T00:00:35.061Z,19.00
2018-11-13T00:01:26.056Z,19.70
2018-11-13T00:02:21.735Z,19.57
2018-11-13T00:03:09.415Z,20.37
2018-11-13T00:03:56.831Z,20.73
2018-11-13T00:04:43.595Z,21.20
2018-11-13T00:05:30.651Z,20.30
2018-11-13T00:06:17.977Z,21.00
2018-11-13T00:07:04.816Z,20.10
2018-11-13T00:07:51.721Z,20.93
2018-11-13T00:08:38.851Z,19.87
2018-11-13T00:09:25.928Z,21.60
2018-11-13T00:10:13.342Z,20.30
2018-11-13T00:11:00.473Z,21.67
2018-11-13T00:11:47.601Z,20.57
2018-11-13T00:12:34.479Z,22.00
2018-11-13T00:13:21.541Z,21.37
2018-11-13T00:14:08.550Z,21.57
2018-11-13T00:14:55.480Z,22.13
2018-11-13T00:15:42.439Z,21.60
2018-11-13T00:16:29.363Z,21.77
2018-11-13T00:17:16.407Z,20.83
2018-11-13T00:18:03.568Z,22.70
2018-11-13T00:18:50.603Z,22.10
2018-11-13T00:19:37.594Z,22.07
2018-11-13T00:20:24.602Z,21.00
2018-11-13T00:21:11.603Z,21.73
2018-11-13T00:21:58.768Z,22.43
2018-11-13T00:22:45.806Z,22.50
2018-11-13T00:23:32.551Z,21.23
2018-11-13T00:24:19.451Z,21.67
2018-11-13T00:25:07.989Z,22.17
2018-11-13T00:25:54.990Z,20.80
2018-11-13T00:26:41.962Z,22.63
2018-11-13T00:27:29.007Z,20.47
2018-11-13T00:28:15.849Z,20.10
2018-11-13T00:29:02.934Z,19.70
2018-11-13T00:29:50.002Z,20.20
2018-11-13T00:30:36.918Z,20.13
2018-11-13T00:31:24.056Z,19.20
2018-11-13T00:32:11.011Z,19.43
2018-11-13T00:32:57.920Z,20.10
2018-11-13T00:33:44.579Z,19.10
2018-11-13T00:34:31.666Z,19.30
2018-11-13T00:35:22.592Z,18.03
2018-11-13T00:36:09.793Z,17.80
2018-11-13T00:36:56.972Z,18.93
2018-11-13T00:37:44.750Z,18.13
2018-11-13T00:38:31.536Z,16.60
2018-11-13T00:39:18.888Z,19.23
2018-11-13T00:40:07.420Z,19.00
2018-11-13T00:40:54.284Z,19.70
2018-11-13T00:41:41.652Z,19.50
2018-11-13T00:42:28.780Z,20.23
2018-11-13T00:43:15.758Z,19.87
2018-11-13T00:44:02.439Z,19.20
2018-11-13T00:44:49.443Z,19.63
2018-11-13T00:45:36.479Z,19.27
2018-11-13T00:46:23.569Z,18.97
2018-11-13T00:47:10.602Z,18.85
2018-11-13T00:47:57.682Z,20.13
2018-11-13T00:48:44.578Z,18.47
2018-11-13T00:49:31.451Z,20.03
2018-11-13T00:50:19.663Z,19.70
2018-11-13T00:51:06.518Z,19.43
2018-11-13T00:51:53.824Z,20.32
2018-11-13T00:52:41.098Z,19.37
2018-11-13T00:53:28.171Z,17.83
2018-11-13T00:54:14.868Z,19.70
2018-11-13T00:55:02.168Z,18.23
2018-11-13T00:55:48.823Z,19.37
2018-11-13T00:56:35.885Z,19.43
2018-11-13T00:57:22.913Z,19.60
2018-11-13T00:58:09.940Z,18.17
2018-11-13T00:58:57.082Z,18.93
2018-11-13T00:59:44.135Z,17.67
2018-11-13T01:00:31.167Z,18.45
2018-11-13T01:01:18.336Z,18.40
2018-11-13T01:02:06.175Z,18.90
2018-11-13T01:02:52.669Z,17.67
2018-11-13T01:03:39.596Z,19.03
2018-11-13T01:04:26.677Z,18.67
2018-11-13T01:05:14.864Z,19.83
2018-11-13T01:06:01.542Z,19.03
2018-11-13T01:06:48.659Z,19.60
2018-11-13T01:07:35.417Z,18.93
2018-11-13T01:08:22.491Z,20.23
2018-11-13T01:09:10.069Z,19.60
2018-11-13T01:09:58.665Z,19.52
2018-11-13T01:10:45.735Z,20.63
2018-11-13T01:11:32.731Z,20.10
2018-11-13T01:12:19.874Z,18.93
2018-11-13T01:13:07.078Z,20.53
2018-11-13T01:13:54.440Z,19.67
2018-11-13T01:14:41.397Z,20.27
2018-11-13T01:15:28.553Z,21.47
2018-11-13T01:16:15.657Z,20.23
2018-11-13T01:17:02.814Z,21.43
2018-11-13T01:17:50.340Z,20.97
2018-11-13T01:18:37.553Z,19.87
2018-11-13T01:19:24.704Z,20.53
2018-11-13T01:20:11.883Z,21.27
2018-11-13T01:20:58.916Z,20.43
2018-11-13T01:21:45.796Z,20.88
2018-11-13T01:22:32.998Z,20.23
2018-11-13T01:23:19.639Z,21.33
2018-11-13T01:24:06.766Z,20.33
2018-11-13T01:24:53.799Z,19.87
2018-11-13T01:25:40.774Z,18.40
2018-11-13T01:26:27.763Z,18.50
2018-11-13T01:27:14.831Z,19.13
2018-11-13T01:28:01.907Z,18.05
2018-11-13T01:28:48.859Z,18.93
2018-11-13T01:29:35.861Z,18.93
2018-11-13T01:30:22.874Z,19.10
2018-11-13T01:31:09.956Z,17.93
2018-11-13T01:31:57.067Z,18.53
2018-11-13T01:32:44.521Z,18.23
2018-11-13T01:33:31.643Z,15.63
2018-11-13T01:34:18.479Z,16.47
2018-11-13T01:35:06.347Z,15.77
2018-11-13T01:35:53.581Z,15.93
2018-11-13T01:36:40.617Z,17.27
2018-11-13T01:37:27.590Z,15.20
2018-11-13T01:38:14.620Z,15.07
2018-11-13T01:39:01.706Z,15.17
2018-11-13T01:39:48.632Z,14.40
2018-11-13T01:40:35.695Z,13.67
2018-11-13T01:41:22.538Z,12.97
2018-11-13T01:42:09.516Z,13.33
2018-11-13T01:42:56.523Z,12.95
2018-11-13T01:43:43.537Z,12.30
2018-11-13T01:44:30.228Z,11.47
2018-11-13T01:45:18.276Z,11.43
2018-11-13T01:46:05.560Z,11.07
2018-11-13T01:46:52.636Z,11.47
2018-11-13T01:47:39.915Z,11.57
2018-11-13T01:48:26.744Z,11.53
2018-11-13T01:49:14.395Z,11.93
2018-11-13T01:50:01.374Z,10.83
2018-11-13T01:50:48.367Z,11.57
2018-11-13T01:51:35.385Z,11.23
2018-11-13T01:52:22.209Z,10.80
2018-11-13T01:53:09.274Z,12.10
2018-11-13T01:53:56.307Z,11.30
2018-11-13T01:54:42.992Z,10.40
2018-11-13T01:55:29.905Z,10.40
2018-11-13T01:56:16.825Z,10.70
2018-11-13T01:57:04.222Z,10.17
2018-11-13T01:57:50.969Z,10.53
2018-11-13T01:58:37.788Z,9.33
2018-11-13T01:59:24.626Z,10.53
2018-11-13T02:00:24.532Z,9.78
2018-11-13T02:01:11.432Z,9.10
2018-11-13T02:01:58.257Z,9.57
2018-11-13T02:02:46.443Z,9.10
2018-11-13T02:03:33.305Z,8.90
2018-11-13T02:04:20.129Z,9.63
2018-11-13T02:05:07.231Z,8.80
2018-11-13T02:05:54.186Z,9.00
2018-11-13T02:06:41.134Z,9.53
2018-11-13T02:07:28.842Z,8.80
2018-11-13T02:08:15.628Z,8.30
2018-11-13T02:09:02.642Z,7.87
2018-11-13T02:09:49.577Z,8.38
2018-11-13T02:10:36.639Z,8.73
2018-11-13T02:11:23.529Z,8.73
2018-11-13T02:12:10.598Z,8.37
2018-11-13T02:12:57.567Z,8.18
2018-11-13T02:13:44.519Z,7.70
2018-11-13T02:14:31.554Z,7.23
2018-11-13T02:15:19.107Z,7.43
2018-11-13T02:16:07.207Z,7.47
2018-11-13T02:16:54.069Z,7.43
2018-11-13T02:17:41.526Z,7.07
2018-11-13T02:18:28.617Z,7.40
2018-11-13T02:19:15.770Z,6.73
2018-11-13T02:20:02.891Z,6.77
2018-11-13T02:20:50.017Z,6.23
2018-11-13T02:21:37.441Z,5.93
2018-11-13T02:22:24.328Z,6.00
2018-11-13T02:23:11.537Z,6.33
2018-11-13T02:23:58.615Z,5.83
2018-11-13T02:24:45.551Z,6.03
2018-11-13T02:25:32.560Z,5.73
2018-11-13T02:26:19.620Z,5.78
2018-11-13T02:27:06.685Z,6.13
2018-11-13T02:27:53.672Z,6.03
2018-11-13T02:28:40.844Z,6.50
2018-11-13T02:29:27.739Z,6.90
2018-11-13T02:30:19.213Z,7.30
2018-11-13T02:31:06.148Z,7.97
2018-11-13T02:31:53.320Z,7.45
2018-11-13T02:32:40.993Z,7.70
2018-11-13T02:33:27.835Z,8.60
2018-11-13T02:34:14.682Z,7.67
2018-11-13T02:35:01.909Z,7.75
2018-11-13T02:35:48.671Z,9.33
2018-11-13T02:36:35.644Z,9.00
2018-11-13T02:37:22.582Z,8.45
2018-11-13T02:38:09.598Z,9.40
2018-11-13T02:38:56.589Z,10.17
2018-11-13T02:39:43.723Z,9.20
2018-11-13T02:40:30.623Z,9.50
2018-11-13T02:41:17.706Z,10.30
2018-11-13T02:42:04.671Z,11.25
2018-11-13T02:42:51.517Z,11.57
2018-11-13T02:43:38.603Z,11.17
2018-11-13T02:44:25.544Z,10.97
2018-11-13T02:45:17.061Z,11.80
2018-11-13T02:46:04.088Z,11.00
2018-11-13T02:46:51.199Z,11.27
2018-11-13T02:47:38.939Z,11.80
2018-11-13T02:48:26.038Z,12.03
2018-11-13T02:49:13.391Z,10.63
2018-11-13T02:50:00.296Z,10.90
2018-11-13T02:50:47.487Z,10.50
2018-11-13T02:51:35.053Z,10.57
2018-11-13T02:52:22.306Z,11.28
2018-11-13T02:53:09.211Z,12.17
2018-11-13T02:53:56.295Z,11.80
2018-11-13T02:54:43.501Z,11.13
2018-11-13T02:55:30.316Z,10.18
2018-11-13T02:56:17.578Z,10.55
2018-11-13T02:57:04.669Z,10.20
2018-11-13T02:57:51.923Z,10.40
2018-11-13T02:58:39.044Z,9.83
2018-11-13T02:59:25.958Z,9.97
2018-11-13T03:00:14.944Z,10.33
2018-11-13T03:01:01.908Z,9.97
2018-11-13T03:01:48.835Z,10.27
2018-11-13T03:02:35.718Z,10.23
2018-11-13T03:03:22.862Z,9.55
2018-11-13T03:04:10.473Z,10.10
2018-11-13T03:04:57.339Z,9.73
2018-11-13T03:05:44.227Z,9.83
2018-11-13T03:06:31.070Z,8.50
2018-11-13T03:07:18.152Z,8.05
2018-11-13T03:08:05.255Z,7.80
2018-11-13T03:08:52.292Z,8.53
2018-11-13T03:09:39.282Z,8.23
2018-11-13T03:10:26.310Z,8.08
2018-11-13T03:11:13.591Z,8.00
2018-11-13T03:12:00.658Z,7.90
2018-11-13T03:12:47.602Z,8.07
2018-11-13T03:13:34.530Z,7.40
2018-11-13T03:14:21.601Z,7.35
2018-11-13T03:15:10.591Z,6.70
2018-11-13T03:15:57.605Z,7.22
2018-11-13T03:16:44.476Z,7.27
2018-11-13T03:17:31.372Z,6.67
2018-11-13T03:18:18.567Z,6.70
2018-11-13T03:19:05.915Z,7.15
2018-11-13T03:19:53.320Z,6.27
2018-11-13T03:20:40.501Z,6.00
2018-11-13T03:21:27.611Z,6.63
2018-11-13T03:22:14.611Z,6.70
2018-11-13T03:23:01.655Z,6.20
2018-11-13T03:23:49.089Z,5.07
2018-11-13T03:24:36.270Z,5.53
2018-11-13T03:25:23.375Z,6.43
2018-11-13T03:26:10.611Z,5.87
2018-11-13T03:26:57.937Z,6.45
2018-11-13T03:27:45.171Z,5.97
2018-11-13T03:28:32.398Z,5.95
2018-11-13T03:29:19.944Z,5.83
2018-11-13T03:30:10.319Z,5.73
2018-11-13T03:30:57.486Z,6.58
2018-11-13T03:31:44.486Z,6.53
2018-11-13T03:32:31.273Z,5.62
2018-11-13T03:33:18.397Z,5.55
2018-11-13T03:34:05.072Z,6.17
2018-11-13T03:34:54.095Z,5.05
2018-11-13T03:35:41.529Z,5.62
2018-11-13T03:36:28.264Z,5.05
2018-11-13T03:37:15.207Z,4.90
2018-11-13T03:38:02.425Z,5.05
2018-11-13T03:38:49.565Z,4.72
2018-11-13T03:39:36.553Z,5.13
2018-11-13T03:40:23.570Z,5.00
2018-11-13T03:41:10.521Z,4.53
2018-11-13T03:41:57.642Z,4.78
2018-11-13T03:42:45.159Z,5.17
2018-11-13T03:43:31.966Z,4.37
2018-11-13T03:44:19.224Z,4.53
2018-11-13T03:45:06.831Z,4.17
2018-11-13T03:45:54.056Z,4.50
2018-11-13T03:46:40.788Z,4.53
2018-11-13T03:47:27.811Z,4.67
2018-11-13T03:48:14.929Z,4.40
2018-11-13T03:49:04.971Z,5.00
2018-11-13T03:49:52.089Z,5.47
2018-11-13T03:50:39.286Z,5.03
2018-11-13T03:51:26.612Z,4.90
2018-11-13T03:52:13.648Z,5.77
2018-11-13T03:53:00.646Z,5.60
2018-11-13T03:53:47.846Z,5.60
2018-11-13T03:54:34.978Z,6.10
2018-11-13T03:55:22.109Z,6.00
2018-11-13T03:56:09.215Z,5.45
2018-11-13T03:56:56.375Z,6.47
2018-11-13T03:57:44.444Z,6.00
2018-11-13T03:58:31.574Z,5.80
2018-11-13T03:59:18.677Z,6.30
2018-11-13T04:00:08.432Z,6.33
2018-11-13T04:00:55.383Z,6.72
2018-11-13T04:01:42.693Z,6.28
2018-11-13T04:02:29.712Z,6.37
2018-11-13T04:03:16.791Z,6.90
2018-11-13T04:04:12.543Z,6.70
2018-11-13T04:05:02.550Z,6.47
2018-11-13T04:05:49.665Z,6.47
2018-11-13T04:06:36.444Z,6.23
2018-11-13T04:07:24.031Z,7.05
2018-11-13T04:08:11.166Z,6.67
2018-11-13T04:08:58.273Z,6.30
2018-11-13T04:09:45.379Z,7.03
2018-11-13T04:10:32.201Z,6.47
2018-11-13T04:11:19.245Z,6.55
2018-11-13T04:12:06.445Z,6.28
2018-11-13T04:12:56.203Z,7.13
2018-11-13T04:13:43.179Z,7.20
2018-11-13T04:14:30.007Z,6.92
2018-11-13T04:15:18.661Z,7.40
2018-11-13T04:16:05.825Z,6.90
2018-11-13T04:16:52.582Z,6.57
2018-11-13T04:17:39.982Z,7.43
2018-11-13T04:18:28.096Z,6.67
2018-11-13T04:19:15.105Z,7.23
2018-11-13T04:20:02.328Z,6.70
2018-11-13T04:20:49.088Z,6.60
2018-11-13T04:21:37.251Z,7.13
2018-11-13T04:22:24.149Z,6.13
2018-11-13T04:23:11.186Z,6.23
2018-11-13T04:23:59.009Z,6.40
2018-11-13T04:24:45.893Z,6.47
2018-11-13T04:25:33.415Z,6.20
2018-11-13T04:26:20.753Z,6.30
2018-11-13T04:27:07.949Z,5.67
2018-11-13T04:27:55.682Z,5.63
2018-11-13T04:28:42.928Z,5.80
2018-11-13T04:29:30.544Z,6.05
2018-11-13T04:30:19.821Z,5.50
2018-11-13T04:31:06.665Z,5.23
2018-11-13T04:31:53.656Z,4.67
2018-11-13T04:32:41.009Z,4.87
2018-11-13T04:33:28.174Z,5.25
2018-11-13T04:34:15.051Z,5.30
2018-11-13T04:35:02.149Z,4.77
2018-11-13T04:35:49.215Z,5.50
2018-11-13T04:36:36.367Z,4.83
2018-11-13T04:37:23.329Z,4.73
2018-11-13T04:38:10.317Z,5.10
2018-11-13T04:39:00.325Z,4.97
2018-11-13T04:39:47.277Z,4.97
2018-11-13T04:40:35.159Z,4.77
2018-11-13T04:41:22.665Z,4.93
2018-11-13T04:42:09.774Z,4.50
2018-11-13T04:42:56.622Z,5.00
2018-11-13T04:43:43.598Z,5.10
2018-11-13T04:44:30.649Z,5.05
2018-11-13T04:45:18.543Z,4.90
2018-11-13T04:46:05.673Z,4.90
2018-11-13T04:46:52.372Z,4.80
2018-11-13T04:47:39.573Z,4.78
2018-11-13T04:48:26.912Z,5.37
2018-11-13T04:49:13.811Z,4.20
2018-11-13T04:50:01.176Z,5.13
2018-11-13T04:50:48.942Z,4.90
2018-11-13T04:51:35.941Z,4.60
2018-11-13T04:52:23.308Z,4.67
2018-11-13T04:53:10.292Z,4.70
2018-11-13T04:53:57.751Z,4.63
2018-11-13T04:54:44.592Z,4.40
2018-11-13T04:55:31.569Z,4.60
2018-11-13T04:56:18.520Z,4.20
2018-11-13T04:57:06.466Z,4.33
2018-11-13T04:57:53.325Z,4.35
2018-11-13T04:58:40.291Z,4.37
2018-11-13T04:59:26.964Z,4.67
2018-11-13T05:00:16.060Z,4.83
2018-11-13T05:01:03.204Z,4.80
2018-11-13T05:01:50.127Z,4.73
2018-11-13T05:02:37.481Z,4.47
2018-11-13T05:03:24.569Z,4.60
2018-11-13T05:04:11.500Z,4.83
2018-11-13T05:04:58.601Z,4.75
2018-11-13T05:05:45.818Z,4.40
2018-11-13T05:06:36.912Z,4.43
2018-11-13T05:07:24.031Z,4.25
2018-11-13T05:08:11.050Z,4.42
2018-11-13T05:08:58.247Z,4.28
2018-11-13T05:09:45.015Z,4.40
2018-11-13T05:10:32.327Z,4.20
2018-11-13T05:11:19.605Z,4.33
2018-11-13T05:12:06.717Z,3.85
2018-11-13T05:12:53.556Z,4.03
2018-11-13T05:13:40.409Z,3.90
2018-11-13T05:14:27.288Z,3.70
2018-11-13T05:15:14.548Z,3.53
2018-11-13T05:16:02.051Z,7.80
2018-11-13T05:16:49.565Z,63.87
2018-11-13T05:17:36.788Z,20.83
2018-11-13T05:18:24.027Z,22.80
2018-11-13T05:19:10.986Z,8.57
2018-11-13T05:19:58.325Z,5.47
2018-11-13T05:20:45.370Z,4.27
2018-11-13T05:21:32.886Z,3.97
2018-11-13T05:22:20.005Z,3.70
2018-11-13T05:23:07.151Z,2.93
2018-11-13T05:23:54.003Z,3.30
2018-11-13T05:24:41.390Z,3.33
2018-11-13T05:25:28.612Z,3.40
2018-11-13T05:26:15.572Z,2.80
2018-11-13T05:27:02.545Z,3.33
2018-11-13T05:27:49.562Z,3.30
2018-11-13T05:28:36.561Z,3.10
2018-11-13T05:29:23.542Z,3.30
2018-11-13T05:30:15.186Z,2.92
2018-11-13T05:31:02.436Z,3.00
2018-11-13T05:31:49.361Z,2.87
2018-11-13T05:32:36.679Z,2.90
2018-11-13T05:33:23.863Z,3.00
2018-11-13T05:34:10.847Z,3.47
2018-11-13T05:34:57.727Z,2.90
2018-11-13T05:35:44.760Z,2.92
2018-11-13T05:36:31.764Z,3.10
2018-11-13T05:37:18.579Z,2.92
2018-11-13T05:38:05.859Z,3.37
2018-11-13T05:38:53.028Z,3.30
2018-11-13T05:39:41.136Z,3.10
2018-11-13T05:40:27.944Z,2.60
2018-11-13T05:41:15.048Z,3.12
2018-11-13T05:42:02.355Z,2.95
2018-11-13T05:42:49.303Z,2.80
2018-11-13T05:43:36.417Z,3.12
2018-11-13T05:44:23.566Z,2.80
2018-11-13T05:45:13.325Z,2.67
2018-11-13T05:46:00.527Z,3.00
2018-11-13T05:46:47.667Z,3.50
2018-11-13T05:47:34.899Z,3.10
2018-11-13T05:48:22.176Z,2.83
2018-11-13T05:49:10.299Z,3.00
2018-11-13T05:49:57.331Z,3.20
2018-11-13T05:50:44.427Z,2.57
2018-11-13T05:51:31.546Z,2.80
2018-11-13T05:52:18.573Z,3.30
2018-11-13T05:53:05.978Z,2.93
2018-11-13T05:53:52.968Z,3.07
2018-11-13T05:54:40.003Z,3.25
2018-11-13T05:55:27.125Z,2.92
2018-11-13T05:56:14.375Z,2.72
2018-11-13T05:57:01.336Z,3.00
2018-11-13T05:57:48.689Z,3.33
2018-11-13T05:58:35.564Z,2.77
2018-11-13T05:59:22.694Z,3.00
2018-11-13T06:00:38.637Z,2.90
2018-11-13T06:01:25.737Z,2.55
2018-11-13T06:02:26.563Z,2.90
2018-11-13T06:03:13.671Z,2.75
2018-11-13T06:04:00.890Z,3.08
2018-11-13T06:04:48.003Z,2.80
2018-11-13T06:05:35.160Z,3.00
2018-11-13T06:06:22.097Z,3.00
2018-11-13T06:07:09.172Z,2.63
2018-11-13T06:07:56.468Z,2.90
2018-11-13T06:08:46.345Z,2.73
2018-11-13T06:09:33.296Z,2.98
2018-11-13T06:10:20.427Z,2.35
2018-11-13T06:11:07.522Z,2.60
2018-11-13T06:11:54.972Z,3.00
2018-11-13T06:12:42.185Z,2.90
2018-11-13T06:13:29.562Z,2.33
2018-11-13T06:14:16.656Z,2.60
2018-11-13T06:15:03.549Z,2.42
2018-11-13T06:15:50.728Z,2.83
2018-11-13T06:16:37.687Z,2.30
2018-11-13T06:17:24.789Z,2.90
2018-11-13T06:18:11.847Z,2.77
2018-11-13T06:18:58.796Z,2.77
2018-11-13T06:19:46.846Z,2.45
2018-11-13T06:20:33.869Z,2.95
2018-11-13T06:21:20.939Z,3.70
2018-11-13T06:22:08.090Z,2.85
2018-11-13T06:22:55.455Z,2.90
2018-11-13T06:23:42.160Z,2.50
2018-11-13T06:24:29.653Z,2.55
2018-11-13T06:25:17.266Z,2.67
2018-11-13T06:26:04.214Z,2.60
2018-11-13T06:26:51.288Z,2.65
2018-11-13T06:27:38.787Z,2.62
2018-11-13T06:28:26.192Z,2.27
2018-11-13T06:29:13.370Z,2.55
2018-11-13T06:30:00.403Z,2.30
2018-11-13T06:30:48.056Z,2.92
2018-11-13T06:31:34.956Z,2.12
2018-11-13T06:32:22.314Z,2.67
2018-11-13T06:33:09.475Z,2.65
2018-11-13T06:33:56.709Z,2.50
2018-11-13T06:34:43.962Z,2.77
2018-11-13T06:35:31.399Z,2.40
2018-11-13T06:36:18.648Z,2.17
2018-11-13T06:37:05.951Z,2.80
2018-11-13T06:37:53.024Z,2.43
2018-11-13T06:38:40.132Z,2.87
2018-11-13T06:39:27.251Z,2.33
2018-11-13T06:40:14.244Z,2.42
2018-11-13T06:41:01.371Z,2.30
2018-11-13T06:41:48.258Z,2.52
2018-11-13T06:42:38.694Z,2.33
2018-11-13T06:43:25.866Z,2.00
2018-11-13T06:44:12.876Z,1.97
2018-11-13T06:44:59.939Z,2.17
2018-11-13T06:45:46.991Z,2.35
2018-11-13T06:46:33.810Z,2.30
2018-11-13T06:47:20.962Z,2.17
2018-11-13T06:48:08.088Z,2.62
2018-11-13T06:48:55.002Z,2.30
2018-11-13T06:49:41.753Z,2.37
2018-11-13T06:50:28.732Z,2.40
2018-11-13T06:51:15.820Z,2.22
2018-11-13T06:52:02.682Z,2.50
2018-11-13T06:52:50.316Z,2.25
2018-11-13T06:54:13.222Z,2.05
2018-11-13T06:55:20.816Z,2.35
2018-11-13T06:56:07.819Z,2.35
2018-11-13T06:56:57.213Z,2.40
2018-11-13T06:57:43.993Z,2.05
2018-11-13T06:58:31.228Z,2.33
2018-11-13T06:59:18.103Z,2.50
2018-11-13T07:00:06.481Z,2.45
2018-11-13T07:00:53.617Z,2.25
2018-11-13T07:01:40.528Z,2.55
2018-11-13T07:02:27.617Z,2.22
2018-11-13T07:03:14.845Z,2.87
2018-11-13T07:04:02.171Z,2.27
2018-11-13T07:04:49.081Z,2.50
2018-11-13T07:05:36.302Z,2.47
2018-11-13T07:06:23.448Z,2.90
2018-11-13T07:07:10.525Z,2.98
2018-11-13T07:07:57.647Z,2.90
2018-11-13T07:08:44.893Z,2.77
2018-11-13T07:09:32.001Z,3.08
2018-11-13T07:10:20.262Z,3.27
2018-11-13T07:11:07.263Z,3.22
2018-11-13T07:11:54.332Z,3.00
2018-11-13T07:12:42.582Z,3.20
2018-11-13T07:13:31.318Z,2.90
2018-11-13T07:14:18.498Z,3.60
2018-11-13T07:15:07.034Z,3.07
2018-11-13T07:15:54.037Z,2.55
2018-11-13T07:16:45.870Z,3.03
2018-11-13T07:17:32.791Z,2.80
2018-11-13T07:18:19.790Z,2.83
2018-11-13T07:19:06.644Z,2.72
2018-11-13T07:19:53.533Z,2.77
2018-11-13T07:20:40.421Z,2.80
2018-11-13T07:21:27.535Z,3.50
2018-11-13T07:22:14.800Z,3.10
2018-11-13T07:23:01.849Z,2.98
2018-11-13T07:23:48.910Z,3.27
2018-11-13T07:24:36.007Z,3.30
2018-11-13T07:25:22.894Z,3.70
2018-11-13T07:26:09.577Z,3.33
2018-11-13T07:26:56.850Z,3.62
2018-11-13T07:27:44.134Z,3.30
2018-11-13T07:28:31.358Z,3.30
2018-11-13T07:29:18.314Z,4.08
2018-11-13T07:30:07.093Z,3.73
2018-11-13T07:30:53.914Z,3.80
2018-11-13T07:31:40.935Z,4.10
2018-11-13T07:32:27.761Z,4.20
2018-11-13T07:33:14.677Z,4.03
2018-11-13T07:34:02.082Z,3.47
2018-11-13T07:34:48.983Z,3.67
2018-11-13T07:35:35.977Z,3.40
2018-11-13T07:36:23.037Z,3.90
2018-11-13T07:37:10.132Z,3.70
2018-11-13T07:37:58.624Z,4.03
2018-11-13T07:38:45.720Z,3.50
2018-11-13T07:39:33.343Z,4.10
2018-11-13T07:40:21.176Z,3.77
2018-11-13T07:41:08.556Z,3.85
2018-11-13T07:41:55.730Z,3.50
2018-11-13T07:42:42.896Z,4.30
2018-11-13T07:43:30.325Z,4.33
2018-11-13T07:44:17.380Z,4.58
2018-11-13T07:45:05.225Z,4.37
2018-11-13T07:45:52.338Z,4.70
2018-11-13T07:46:39.375Z,4.00
2018-11-13T07:47:26.624Z,4.17
2018-11-13T07:48:13.658Z,4.13
2018-11-13T07:49:00.706Z,4.00
2018-11-13T07:49:47.548Z,4.40
2018-11-13T07:50:34.558Z,4.30
2018-11-13T07:51:21.601Z,4.50
2018-11-13T07:52:08.629Z,4.62
2018-11-13T07:52:55.794Z,5.15
2018-11-13T07:53:42.958Z,5.57
2018-11-13T07:54:30.245Z,5.33
2018-11-13T07:55:17.459Z,4.83
2018-11-13T07:56:04.733Z,5.03
2018-11-13T07:56:51.775Z,5.13
2018-11-13T07:57:38.905Z,4.60
2018-11-13T07:58:25.713Z,5.30
2018-11-13T07:59:12.776Z,5.00
2018-11-13T08:00:00.049Z,5.57
2018-11-13T08:00:47.034Z,5.40
2018-11-13T08:01:34.295Z,6.07
2018-11-13T08:02:21.153Z,5.87
2018-11-13T08:03:39.958Z,5.50
2018-11-13T08:04:27.003Z,5.33
2018-11-13T08:05:14.089Z,4.83
2018-11-13T08:06:02.478Z,5.17
2018-11-13T08:06:49.416Z,5.07
2018-11-13T08:07:36.317Z,5.30
2018-11-13T08:08:23.356Z,5.20
2018-11-13T08:09:10.344Z,5.05
2018-11-13T08:09:57.324Z,5.10
2018-11-13T08:10:44.330Z,4.50
2018-11-13T08:11:31.346Z,4.97
2018-11-13T08:12:18.319Z,4.70
2018-11-13T08:13:05.441Z,5.03
2018-11-13T08:13:52.388Z,4.77
2018-11-13T08:14:39.429Z,4.73
2018-11-13T08:15:26.433Z,4.23
2018-11-13T08:16:13.474Z,4.03
2018-11-13T08:17:00.587Z,4.90
2018-11-13T08:17:47.715Z,4.00
2018-11-13T08:18:34.865Z,4.73
2018-11-13T08:19:21.974Z,4.30
2018-11-13T08:20:11.382Z,4.53
2018-11-13T08:20:58.336Z,4.00
2018-11-13T08:21:45.600Z,3.83
2018-11-13T08:22:32.544Z,4.10
2018-11-13T08:23:19.622Z,4.13
2018-11-13T08:24:06.801Z,4.33
2018-11-13T08:24:54.421Z,4.07
2018-11-13T08:25:41.329Z,4.13
2018-11-13T08:26:28.215Z,3.60
2018-11-13T08:27:15.220Z,3.87
2018-11-13T08:28:02.287Z,3.70
2018-11-13T08:28:49.350Z,3.90
2018-11-13T08:29:36.587Z,3.80
2018-11-13T08:30:23.450Z,3.80
2018-11-13T08:31:10.566Z,3.70
2018-11-13T08:31:57.723Z,3.60
2018-11-13T08:32:45.418Z,4.33
2018-11-13T08:33:32.557Z,3.80
2018-11-13T08:34:19.735Z,3.47
2018-11-13T08:35:07.429Z,3.47
2018-11-13T08:35:54.275Z,3.70
2018-11-13T08:36:41.905Z,4.00
2018-11-13T08:37:28.893Z,3.67
2018-11-13T08:38:16.138Z,3.50
2018-11-13T08:39:04.576Z,3.70
2018-11-13T08:39:51.558Z,4.10
2018-11-13T08:40:38.649Z,3.70
2018-11-13T08:41:25.681Z,3.43
2018-11-13T08:42:12.647Z,3.73
2018-11-13T08:42:59.732Z,4.00
2018-11-13T08:43:46.920Z,3.27
2018-11-13T08:44:33.631Z,3.57
2018-11-13T08:45:20.751Z,4.00
2018-11-13T08:46:07.944Z,3.80
2018-11-13T08:46:54.676Z,3.40
2018-11-13T08:47:42.205Z,3.97
2018-11-13T08:48:29.260Z,3.43
2018-11-13T08:49:16.192Z,3.67
2018-11-13T08:50:03.057Z,3.80
2018-11-13T08:50:50.162Z,3.43
2018-11-13T08:51:37.194Z,4.10
2018-11-13T08:52:24.119Z,4.47
2018-11-13T08:53:11.093Z,4.10
2018-11-13T08:53:57.943Z,3.83
2018-11-13T08:54:48.910Z,4.10
2018-11-13T08:55:36.126Z,4.43
2018-11-13T08:56:23.107Z,3.80
2018-11-13T08:57:10.462Z,3.83
2018-11-13T08:57:57.306Z,3.67
2018-11-13T08:58:44.474Z,4.13
2018-11-13T08:59:31.825Z,3.80
2018-11-13T09:00:19.478Z,3.57
2018-11-13T09:01:06.734Z,4.20
2018-11-13T09:01:53.795Z,3.73
2018-11-13T09:02:41.327Z,4.30
2018-11-13T09:03:28.334Z,3.50
2018-11-13T09:04:15.309Z,3.90
2018-11-13T09:05:02.422Z,3.53
2018-11-13T09:05:49.312Z,3.23
2018-11-13T09:06:36.357Z,3.43
2018-11-13T09:07:29.288Z,3.37
2018-11-13T09:08:16.972Z,3.60
2018-11-13T09:09:06.141Z,3.27
2018-11-13T09:09:52.833Z,3.20
2018-11-13T09:10:40.663Z,2.90
2018-11-13T09:11:27.759Z,3.20
2018-11-13T09:12:15.132Z,3.60
2018-11-13T09:13:02.270Z,3.30
2018-11-13T09:13:49.424Z,3.20
2018-11-13T09:14:36.441Z,3.27
2018-11-13T09:15:23.681Z,2.93
2018-11-13T09:16:10.987Z,3.77
2018-11-13T09:16:58.157Z,3.07
2018-11-13T09:17:46.824Z,3.20
2018-11-13T09:18:34.232Z,3.40
2018-11-13T09:19:21.090Z,3.40
2018-11-13T09:20:14.072Z,2.93
2018-11-13T09:21:00.498Z,3.13
2018-11-13T09:21:47.724Z,2.70
2018-11-13T09:22:35.032Z,3.17
2018-11-13T09:23:22.199Z,3.00
2018-11-13T09:24:09.297Z,3.33
2018-11-13T09:24:56.221Z,3.27
2018-11-13T09:25:43.413Z,3.67
2018-11-13T09:26:30.232Z,2.80
2018-11-13T09:27:17.403Z,3.07
2018-11-13T09:28:04.632Z,2.80
2018-11-13T09:28:51.609Z,3.63
2018-11-13T09:29:38.383Z,2.63
2018-11-13T09:30:25.499Z,2.90
2018-11-13T09:31:12.403Z,3.20
2018-11-13T09:31:59.310Z,2.87
2018-11-13T09:32:46.906Z,2.90
2018-11-13T09:33:34.040Z,3.17
2018-11-13T09:34:21.357Z,2.83
2018-11-13T09:35:09.732Z,2.50
2018-11-13T09:35:56.773Z,2.90
2018-11-13T09:36:44.101Z,3.00
2018-11-13T09:37:31.262Z,2.80
2018-11-13T09:38:18.381Z,2.63
2018-11-13T09:39:08.797Z,3.27
2018-11-13T09:39:55.950Z,2.90
2018-11-13T09:40:42.773Z,2.90
2018-11-13T09:41:29.744Z,2.63
2018-11-13T09:42:16.933Z,2.70
2018-11-13T09:43:03.845Z,2.90
2018-11-13T09:43:50.827Z,2.50
2018-11-13T09:44:37.765Z,3.10
2018-11-13T09:45:24.750Z,2.50
2018-11-13T09:46:11.774Z,2.70
2018-11-13T09:46:58.679Z,3.10
2018-11-13T09:47:45.898Z,2.83
2018-11-13T09:48:32.850Z,3.17
2018-11-13T09:49:19.947Z,2.80
2018-11-13T09:50:09.102Z,3.10
2018-11-13T09:50:56.253Z,2.97
2018-11-13T09:51:42.947Z,2.90
2018-11-13T09:52:29.619Z,2.43
2018-11-13T09:53:16.773Z,3.40
2018-11-13T09:54:03.683Z,2.57
2018-11-13T09:54:53.638Z,2.80
2018-11-13T09:55:40.589Z,3.13
2018-11-13T09:56:27.715Z,2.87
2018-11-13T09:57:14.591Z,3.13
2018-11-13T09:58:01.645Z,2.80
2018-11-13T09:58:48.938Z,3.30
2018-11-13T09:59:35.732Z,2.77
2018-11-13T10:00:24.119Z,2.73
2018-11-13T10:01:11.740Z,3.03
2018-11-13T10:01:59.572Z,3.03
2018-11-13T10:02:57.287Z,2.60
2018-11-13T10:03:44.270Z,2.70
2018-11-13T10:04:31.176Z,2.87
2018-11-13T10:05:18.796Z,2.90
2018-11-13T10:06:05.824Z,3.07
2018-11-13T10:06:53.203Z,3.00
2018-11-13T10:07:40.746Z,2.33
2018-11-13T10:08:28.057Z,3.03
2018-11-13T10:09:15.318Z,2.50
2018-11-13T10:10:02.278Z,2.60
2018-11-13T10:10:49.690Z,2.60
2018-11-13T10:11:36.754Z,2.60
2018-11-13T10:12:24.503Z,2.50
2018-11-13T10:13:11.493Z,2.77
2018-11-13T10:13:58.732Z,2.47
2018-11-13T10:14:45.772Z,2.00
2018-11-13T10:15:51.917Z,2.20
2018-11-13T10:16:39.794Z,2.10
2018-11-13T10:17:26.886Z,2.60
2018-11-13T10:18:14.061Z,2.40
2018-11-13T10:19:01.203Z,2.67
2018-11-13T10:19:48.197Z,2.13
2018-11-13T10:20:35.264Z,2.77
2018-11-13T10:21:22.607Z,2.10
2018-11-13T10:22:09.540Z,2.13
2018-11-13T10:22:57.259Z,2.33
2018-11-13T10:23:44.277Z,3.00
2018-11-13T10:24:31.384Z,2.40
2018-11-13T10:25:18.233Z,2.07
2018-11-13T10:26:05.486Z,2.33
2018-11-13T10:26:52.324Z,2.73
2018-11-13T10:27:39.887Z,1.97